Terminal Aerodrome Forecast
Issued by NWS

Home | Current Version | Previous Version | Text Only | Print | Product List | Glossary On
Versions: 1 2 3 4 5 6 7 8 9 10 11 12 13 14 15 16 17 18 19 20 21
000
FTUS43 KTOP 181700
TAFFOE
TAF
KFOE 181733Z 1818/1918 18004KT P6SM -SHRA SCT050 OVC090
     FM182100 16009KT P6SM BKN090
     FM190800 09003KT 4SM -TSRA BR BKN040CB
     FM191500 33004KT P6SM VCSH BKN050=

USA.gov is the U.S. government's official web portal to all federal, state and local government web resources and services.